Terminal Aerodrome Forecast
Issued by NWS

Home | Current Version | Previous Version | Text Only | Print | Product List | Glossary On
Versions: 1 2 3 4 5 6 7 8 9 10 11 12 13 14 15 16 17 18 19 20 21
000
FTUS44 KEWX 272329
TAFSSF
TAF
KSSF 272329Z 2800/2824 14005KT P6SM FEW060 BKN250
     FM280600 20005KT P6SM FEW250
     FM282000 16010KT P6SM SCT250=

USA.gov is the U.S. government's official web portal to all federal, state and local government web resources and services.